This is the latest recevied weather packets stored in our database for station/object EA3GKP-10. If no packets are shown the sender has not sent any weather packets the latest 10 day(s).
| Time | Temp. | Humidity | Pressure | Rain* | Wind** | Luminosity | Snow |
|---|---|---|---|---|---|---|---|
| 1777397093 | 18.89° C | - | - | 0 mm | 3.13 m/s, 311° | - | - |
| 1777396790 | 18.89° C | - | - | 0 mm | 3.13 m/s, 311° | - | - |
| 1777396487 | 20° C | - | - | 0 mm | 1.79 m/s, 322° | - | - |
| 1777396184 | 19.44° C | - | - | 0 mm | 1.79 m/s, 308° | - | - |
| 1777395881 | 20° C | - | - | 0 mm | 2.24 m/s, 301° | - | - |
| 1777395575 | 20° C | - | - | 0 mm | 1.79 m/s, 46° | - | - |
| 1777395272 | 20.56° C | - | - | 0 mm | 1.34 m/s, 15° | - | - |
| 1777394970 | 20.56° C | - | - | 0 mm | 1.34 m/s, 31° | - | - |
| 1777394667 | 20.56° C | - | - | 0 mm | 1.34 m/s, 335° | - | - |
| 1777394361 | 20.56° C | - | - | 0 mm | 0 m/s | - | - |
| 1777394058 | 18.89° C | - | - | 0 mm | 3.13 m/s, 314° | - | - |
| 1777393755 | 20° C | - | - | 0 mm | 1.34 m/s, 307° | - | - |
| 1777393452 | 20° C | - | - | 0 mm | 2.24 m/s, 285° | - | - |
| 1777393149 | 20° C | - | - | 0 mm | 1.79 m/s, 356° | - | - |
| 1777392846 | 18.89° C | - | - | 0 mm | 2.24 m/s, 42° | - | - |
| 1777392539 | 19.44° C | - | - | 0 mm | 4.47 m/s, 294° | - | - |
| 1777392233 | 21.11° C | - | - | 0 mm | 1.34 m/s, 3° | - | - |
| 1777391624 | 20.56° C | - | - | 0 mm | 3.13 m/s, 1° | - | - |
| 1777391322 | 20° C | - | - | 0 mm | 1.79 m/s, 359° | - | - |
| 1777391019 | 20° C | - | - | 0 mm | 1.34 m/s, 350° | - | - |
| 1777390715 | 20.56° C | - | - | 0 mm | 1.34 m/s, 3° | - | - |
| 1777390412 | 20.56° C | - | - | 0 mm | 1.34 m/s, 340° | - | - |
| 1777390106 | 20.56° C | - | - | 0 mm | 1.34 m/s, 25° | - | - |
| 1777389803 | 20.56° C | - | - | 0 mm | 0.89 m/s, 58° | - | - |
| 1777389500 | 20° C | - | - | 0 mm | 1.79 m/s, 333° | - | - |
* Rain latest hour (hover to see other rain measurements)
** Current wind speed in m/s (hover to see current wind gust speed)